Flight Track Log - Related Links

Times and Time Zones

All times are in EDT time to prevent confusion due to time zone crossing. See the ASQ5738 flight status page for this flight to view local times or setup timezone preferences in your user account.

Time Position Orientation Groundspeed Altitude Reporting Facility
EDT Latitude Longitude Course Direction KTS MPH feet Rate Location/Type
Fri 03:05:15 PM 32.9772 -80.0128 13° North 218 251 4,200  Level Jacksonville Center
Fri 03:06:00 PM 33.1561 -79.9535 16° North  Level FlightAware Approximate
Fri 03:06:15 PM 33.0475 -79.9931 13° North 264 304 7,000  Level Jacksonville Center
Fri 03:07:00 PM 33.2475 -79.9272 North  Level FlightAware Approximate
Fri 03:07:15 PM 33.1222 -79.9708 14° North 279 321 9,800  Level Jacksonville Center
Fri 03:08:00 PM 33.3378 -79.8978 23° Northeast  Level FlightAware Approximate
Fri 03:08:15 PM 33.2114 -79.9456 13° North 285 328 10,200  Level Jacksonville Center
Fri 03:09:00 PM 33.4287 -79.8709 North  Level FlightAware Approximate
Fri 03:09:15 PM 33.3089 -79.9175 14° North 330 380 12,400  Level Jacksonville Center
Fri 03:10:00 PM 33.5206 -79.8465 13° North  Level FlightAware Approximate
Fri 03:10:15 PM 33.4106 -79.8892 13° North 351 404 14,600  Level Jacksonville Center
Fri 03:11:15 PM 33.5058 -79.8611 14° North 357 411 16,700 1,800 Climbing Jacksonville Center
Fri 03:12:15 PM 33.5986 -79.8181 21° North 357 411 18,200 1,750 Climbing Jacksonville Center
Fri 03:13:15 PM 33.6917 -79.7800 19° North 357 411 20,200 1,750 Climbing Jacksonville Center
Fri 03:14:15 PM 33.7844 -79.7367 21° North 357 411 21,700 1,500 Climbing Jacksonville Center
Fri 03:15:15 PM 33.8772 -79.6958 20° North 351 404 23,200 1,550 Climbing Jacksonville Center
Fri 03:16:15 PM 33.9681 -79.6550 20° North 346 398 24,800 1,550 Climbing Jacksonville Center
Fri 03:17:15 PM 34.0631 -79.6164 19° North 346 398 26,300 1,100 Climbing Jacksonville Center
Fri 03:18:15 PM 34.1536 -79.5728 22° Northeast 346 398 27,000 350 Climbing Jacksonville Center
Fri 03:19:15 PM 34.2525 -79.5261 21° North 357 411 27,000  Level Jacksonville Center
Fri 03:20:42 PM 34.3928 -79.4653 20° North 397 457 27,000  Level Washington Center
Fri 03:21:43 PM 34.5031 -79.4150 21° North 410 472 27,000  Level Washington Center
Fri 03:22:41 PM 34.6194 -79.3625 20° North 425 489 27,000  Level Washington Center
Fri 03:23:41 PM 34.7317 -79.3119 20° North 425 489 27,000  Level Washington Center
Fri 03:24:42 PM 34.8458 -79.2589 21° North 431 496 27,000  Level Washington Center
Fri 03:25:42 PM 34.9581 -79.2083 20° North 431 496 27,000  Level Washington Center
Fri 03:26:43 PM 35.0744 -79.1550 21° North 431 496 27,000  Level Washington Center
Fri 03:27:43 PM 35.1886 -79.1042 20° North 431 496 27,000  Level Washington Center
Fri 03:28:41 PM 35.3028 -79.0508 21° North 431 496 27,000  Level Washington Center
Fri 03:29:42 PM 35.4275 -78.9950 20° North 431 496 27,000  Level Washington Center
Fri 03:30:43 PM 35.5436 -78.9436 20° North 431 496 27,000  Level Washington Center
Fri 03:31:41 PM 35.6581 -78.8872 22° Northeast 431 496 27,000  Level Washington Center
Fri 03:32:41 PM 35.7722 -78.8331 21° North 436 502 27,000  Level Washington Center
Fri 03:33:42 PM 35.8883 -78.7764 22° Northeast 436 502 27,000  Level Washington Center
Fri 03:34:42 PM 36.0028 -78.7142 24° Northeast 436 502 27,000  Level Washington Center
Fri 03:35:42 PM 36.1150 -78.6492 25° Northeast 436 502 27,000  Level Washington Center
Fri 03:36:41 PM 36.2292 -78.5867 24° Northeast 441 507 27,000  Level Washington Center
Fri 03:37:41 PM 36.3414 -78.5214 25° Northeast 446 513 27,000  Level Washington Center
Fri 03:38:43 PM 36.4536 -78.4558 25° Northeast 446 513 27,000  Level Washington Center
Fri 03:39:43 PM 36.5656 -78.3928 24° Northeast 446 513 27,000 -303 Level Washington Center
Fri 03:40:42 PM 36.6778 -78.3294 24° Northeast 446 513 26,400 -950 Descending Washington Center
Fri 03:41:43 PM 36.7708 -78.2706 27° Northeast 427 491 25,100 -1,388 Descending Washington Center
Fri 03:42:43 PM 36.8722 -78.2117 25° Northeast 413 475 23,600 -1,475 Descending Washington Center
Fri 03:43:41 PM 36.9653 -78.1603 24° Northeast 406 467 22,200 -814 Descending Washington Center
Fri 03:44:41 PM 37.0731 -78.0961 25° Northeast 395 455 22,000 -100 Descending Washington Center
Fri 03:45:41 PM 37.1722 -78.0394 24° Northeast 390 449 22,000  Level Washington Center
Fri 03:46:42 PM 37.2714 -77.9825 25° Northeast 385 443 22,000  Level Washington Center
Fri 03:47:42 PM 37.3747 -77.9203 26° Northeast 391 450 22,000  Level Washington Center
Fri 03:48:43 PM 37.4719 -77.8631 25° Northeast 391 450 22,000  Level Washington Center
Fri 03:49:44 PM 37.5836 -77.7958 25° Northeast 391 450 22,000 -605 Level Washington Center
Fri 03:50:42 PM 37.6742 -77.7433 25° Northeast 391 450 20,800 -1,664 Descending Washington Center
Fri 03:51:43 PM 37.7753 -77.6858 24° Northeast 386 444 18,700 -1,966 Descending Washington Center
Fri 03:52:41 PM 37.8703 -77.6278 26° Northeast 386 444 16,900 -1,932 Descending Washington Center
Fri 03:53:41 PM 37.9650 -77.5725 25° Northeast 381 438 14,900 -2,033 Descending Washington Center
Fri 03:54:42 PM 38.0533 -77.5247 23° Northeast 369 425 12,800 -2,016 Descending Washington Center
Fri 03:55:43 PM 38.1356 -77.4767 25° Northeast 340 391 10,800 -1,587 Descending Washington Center
Fri 03:56:43 PM 38.2092 -77.4308 26° Northeast 306 352 9,600 -1,361 Descending Washington Center
Fri 03:57:42 PM 38.2808 -77.3878 25° Northeast 286 329 8,100 -1,300 Descending Washington Center
Fri 03:58:43 PM 38.3492 -77.4186 341° North 252 290 7,000 -545 Descending Washington Center
Fri 03:59:43 PM 38.4217 -77.4547 339° North 243 280 7,000 -50 Level Washington Center
Fri 04:00:42 PM 38.4942 -77.4697 351° North 258 297 6,900 -650 Descending Washington Center
Fri 04:01:43 PM 38.5694 -77.4664 North 263 303 5,700 -992 Descending Washington Center
Fri 04:02:43 PM 38.6444 -77.4656 360° North 268 308 4,900 -458 Descending Washington Center
Fri 04:03:41 PM 38.7133 -77.4647 North 263 303 4,800 -405 Descending Washington Center
Fri 04:03:57 PM 38.7333 -77.4667 356° North 223 257 4,400 -1,342 Descending Potomac TRACON
Fri 04:04:57 PM 38.8000 -77.4667 360° North 204 235 3,100 -1,300 Descending Potomac TRACON

Login

Don't have an account? Register now (free) for customized features, flight alerts, and more!